createdAt,value
2022-08-16T00:02:17.602Z,78.79
2022-08-16T00:05:48.304Z,78.70
2022-08-16T00:09:11.322Z,78.53
2022-08-16T00:12:36.875Z,78.57
2022-08-16T00:16:00.930Z,78.41
2022-08-16T00:19:42.669Z,78.72
2022-08-16T00:23:05.723Z,78.63
2022-08-16T00:26:36.271Z,78.83
2022-08-16T00:30:19.070Z,79.01
2022-08-16T00:33:43.081Z,78.93
2022-08-16T00:37:12.578Z,79.20
2022-08-16T00:40:50.575Z,79.37
2022-08-16T00:44:13.699Z,79.42
2022-08-16T00:47:42.608Z,79.70
2022-08-16T00:51:15.945Z,79.79
2022-08-16T00:54:39.545Z,79.39
2022-08-16T00:58:05.110Z,79.60
2022-08-16T01:01:36.018Z,79.62
2022-08-16T01:05:09.297Z,79.50
2022-08-16T01:08:36.973Z,79.58
2022-08-16T01:11:58.737Z,79.49
2022-08-16T01:15:21.774Z,79.21
2022-08-16T01:19:01.065Z,79.98
2022-08-16T01:22:48.426Z,79.64
2022-08-16T01:26:33.514Z,79.64
2022-08-16T01:30:00.563Z,80.00
2022-08-16T01:33:23.593Z,79.51
2022-08-16T01:36:45.903Z,79.68
2022-08-16T01:40:23.765Z,79.74
2022-08-16T01:43:53.490Z,79.70
2022-08-16T01:47:16.344Z,80.06
2022-08-16T01:51:09.764Z,80.45
2022-08-16T01:54:30.514Z,80.67
2022-08-16T01:57:56.307Z,80.68
2022-08-16T02:01:20.069Z,80.54
2022-08-16T02:04:54.596Z,80.66
2022-08-16T02:08:33.782Z,80.80
2022-08-16T02:11:59.361Z,80.69
2022-08-16T02:15:43.944Z,80.81
2022-08-16T02:19:15.837Z,80.86
2022-08-16T02:22:38.710Z,80.87
2022-08-16T02:26:01.013Z,80.96
2022-08-16T02:29:24.255Z,81.37
2022-08-16T02:32:54.992Z,81.74
2022-08-16T02:36:47.322Z,81.72
2022-08-16T02:40:02.676Z,81.84
2022-08-16T02:43:26.595Z,81.94
2022-08-16T02:46:50.308Z,81.86
2022-08-16T02:50:54.029Z,81.64
2022-08-16T02:53:56.549Z,81.62
2022-08-16T02:57:19.449Z,81.61
2022-08-16T03:00:45.419Z,81.67
2022-08-16T03:04:39.614Z,81.80
2022-08-16T03:07:53.683Z,81.59
2022-08-16T03:11:21.602Z,81.84
2022-08-16T03:14:43.528Z,81.69
2022-08-16T03:18:05.553Z,81.68
2022-08-16T03:21:38.099Z,81.56
2022-08-16T03:25:02.819Z,81.56
2022-08-16T03:28:26.067Z,81.44
2022-08-16T03:31:52.288Z,81.44
2022-08-16T03:35:14.382Z,81.36
2022-08-16T03:38:40.039Z,81.09
2022-08-16T03:42:01.925Z,80.86
2022-08-16T03:45:31.141Z,80.61
2022-08-16T03:48:53.886Z,81.09
2022-08-16T03:52:16.936Z,79.55
2022-08-16T03:55:45.385Z,78.98
2022-08-16T03:59:08.080Z,78.16
2022-08-16T04:02:32.037Z,77.86
2022-08-16T04:05:54.336Z,77.21
2022-08-16T04:09:16.483Z,76.81
2022-08-16T04:13:04.139Z,76.30
2022-08-16T04:16:26.566Z,75.40
2022-08-16T04:19:54.776Z,74.65
2022-08-16T04:23:19.736Z,74.01
2022-08-16T04:26:46.356Z,73.53
2022-08-16T04:30:12.283Z,72.86
2022-08-16T04:33:59.341Z,72.55
2022-08-16T04:37:22.543Z,72.14
2022-08-16T04:40:44.983Z,71.16
2022-08-16T04:44:52.904Z,70.65
2022-08-16T04:47:55.959Z,70.29
2022-08-16T04:51:18.472Z,69.26
2022-08-16T04:54:43.176Z,69.16
2022-08-16T04:58:38.279Z,68.73
2022-08-16T05:01:57.758Z,68.30
2022-08-16T05:05:21.903Z,67.84
2022-08-16T05:08:47.285Z,67.08
2022-08-16T05:12:18.055Z,66.85
2022-08-16T05:15:44.025Z,66.94
2022-08-16T05:19:11.417Z,66.79
2022-08-16T05:22:36.553Z,66.86
2022-08-16T05:25:59.828Z,67.15
2022-08-16T05:29:24.814Z,67.45
2022-08-16T05:32:47.551Z,67.49
2022-08-16T05:36:14.387Z,66.92
2022-08-16T05:39:40.589Z,65.89
2022-08-16T05:43:03.558Z,65.90
2022-08-16T05:46:28.966Z,65.69
2022-08-16T05:49:53.523Z,65.12
2022-08-16T05:53:15.501Z,65.00
2022-08-16T05:56:38.455Z,64.03
2022-08-16T06:00:03.419Z,63.55
2022-08-16T06:03:31.213Z,63.04
2022-08-16T06:06:57.387Z,62.21
2022-08-16T06:10:32.301Z,61.93
2022-08-16T06:13:55.540Z,61.23
2022-08-16T06:17:17.650Z,60.72
2022-08-16T06:20:55.222Z,60.55
2022-08-16T06:24:55.261Z,59.27
2022-08-16T06:28:00.266Z,59.01
2022-08-16T06:31:24.676Z,59.43
2022-08-16T06:34:57.480Z,58.32
2022-08-16T06:38:34.091Z,58.65
2022-08-16T06:41:56.453Z,58.96
2022-08-16T06:45:18.549Z,59.33
2022-08-16T06:48:42.909Z,59.07
2022-08-16T06:52:06.292Z,59.63
2022-08-16T06:55:49.467Z,57.92
2022-08-16T06:59:16.111Z,57.91
2022-08-16T07:02:38.381Z,57.49
2022-08-16T07:06:14.021Z,57.40
2022-08-16T07:09:36.836Z,57.10
2022-08-16T07:13:03.930Z,56.73
2022-08-16T07:16:30.643Z,56.50
2022-08-16T07:20:03.261Z,55.46
2022-08-16T07:23:37.238Z,55.36
2022-08-16T07:27:01.622Z,55.09
2022-08-16T07:30:38.186Z,54.47
2022-08-16T07:34:10.253Z,54.16
2022-08-16T07:37:32.442Z,53.57
2022-08-16T07:41:09.760Z,53.32
2022-08-16T07:44:49.170Z,52.72
2022-08-16T07:48:14.476Z,53.12
2022-08-16T07:51:38.013Z,52.43
2022-08-16T07:55:00.143Z,50.27
2022-08-16T07:58:34.872Z,51.38
2022-08-16T08:01:57.544Z,51.47
2022-08-16T08:05:25.324Z,50.84
2022-08-16T08:08:59.252Z,50.88
2022-08-16T08:12:32.416Z,49.79
2022-08-16T08:15:58.579Z,49.45
2022-08-16T08:19:21.142Z,49.54
2022-08-16T08:22:47.295Z,48.33
2022-08-16T08:26:17.421Z,47.51
2022-08-16T08:29:40.658Z,47.59
2022-08-16T08:33:05.418Z,47.19
2022-08-16T08:36:33.141Z,46.54
2022-08-16T08:39:57.066Z,47.56
2022-08-16T08:43:19.286Z,46.43
2022-08-16T08:46:40.982Z,46.55
2022-08-16T08:50:03.336Z,46.39
2022-08-16T08:53:30.580Z,46.77
2022-08-16T08:56:54.613Z,45.64
2022-08-16T09:00:21.288Z,46.45
2022-08-16T09:03:43.741Z,45.67
2022-08-16T09:07:06.821Z,44.94
2022-08-16T09:10:29.811Z,45.44
2022-08-16T09:13:53.769Z,45.21
2022-08-16T09:17:45.022Z,44.55
2022-08-16T09:21:00.771Z,44.79
2022-08-16T09:24:51.746Z,45.03
2022-08-16T09:28:09.179Z,44.68
2022-08-16T09:31:33.196Z,43.92
2022-08-16T09:35:03.517Z,43.83
2022-08-16T09:38:32.163Z,43.34
2022-08-16T09:41:56.465Z,43.42
2022-08-16T09:45:18.754Z,44.70
2022-08-16T09:48:51.584Z,43.63
2022-08-16T09:52:13.792Z,42.88
2022-08-16T09:55:44.283Z,43.68
2022-08-16T09:59:08.987Z,43.03
2022-08-16T10:02:31.558Z,42.46
2022-08-16T10:05:55.479Z,42.81
2022-08-16T10:09:17.920Z,41.32
2022-08-16T10:12:57.443Z,41.98
2022-08-16T10:16:21.833Z,41.71
2022-08-16T10:19:47.311Z,42.19
2022-08-16T10:23:17.194Z,40.98
2022-08-16T10:27:16.892Z,41.45
2022-08-16T10:30:25.112Z,41.25
2022-08-16T10:33:48.896Z,42.17
2022-08-16T10:37:11.083Z,41.20
2022-08-16T10:40:34.565Z,41.95
2022-08-16T10:43:56.775Z,39.77
2022-08-16T10:47:18.904Z,40.88
2022-08-16T10:50:41.306Z,39.61
2022-08-16T10:54:05.012Z,40.60
2022-08-16T10:57:32.735Z,39.49
2022-08-16T11:00:57.589Z,39.30
2022-08-16T11:08:06.904Z,40.12
2022-08-16T11:11:28.983Z,39.39
2022-08-16T11:18:54.922Z,40.34
2022-08-16T11:22:38.510Z,39.99
2022-08-16T11:26:16.128Z,39.96
2022-08-16T11:29:43.684Z,40.29
2022-08-16T11:33:07.357Z,40.72
2022-08-16T11:36:29.553Z,39.19
2022-08-16T11:39:55.376Z,39.76
2022-08-16T11:43:26.450Z,39.24
2022-08-16T11:46:48.623Z,39.36
2022-08-16T11:50:12.914Z,38.98
2022-08-16T11:53:36.091Z,39.08
2022-08-16T11:56:58.684Z,39.66
2022-08-16T12:00:33.786Z,38.23
2022-08-16T12:04:03.323Z,39.48
2022-08-16T12:07:27.007Z,39.58
2022-08-16T12:10:50.398Z,39.89
2022-08-16T12:14:12.266Z,40.36
2022-08-16T12:17:35.689Z,40.10
2022-08-16T12:21:00.003Z,40.35
2022-08-16T12:24:24.080Z,39.93
2022-08-16T12:27:49.869Z,39.52
2022-08-16T12:31:11.939Z,40.02
2022-08-16T12:34:34.607Z,40.12
2022-08-16T12:37:58.292Z,40.24
2022-08-16T12:41:25.479Z,40.14
2022-08-16T12:44:48.452Z,40.20
2022-08-16T12:48:34.866Z,39.82
2022-08-16T12:51:58.823Z,39.66
2022-08-16T12:55:24.006Z,39.46
2022-08-16T12:58:58.497Z,40.02
2022-08-16T13:02:33.797Z,40.56
2022-08-16T13:05:59.183Z,39.81
2022-08-16T13:09:26.485Z,39.94
2022-08-16T13:12:54.521Z,39.99
2022-08-16T13:16:20.278Z,38.69
2022-08-16T13:23:29.883Z,38.86
2022-08-16T13:26:53.354Z,39.25
2022-08-16T13:30:35.667Z,39.58
2022-08-16T13:33:59.273Z,39.14
2022-08-16T13:37:21.429Z,38.86
2022-08-16T13:40:44.167Z,38.57
2022-08-16T13:44:09.518Z,38.82
2022-08-16T13:47:32.482Z,39.23
2022-08-16T13:51:03.722Z,38.36
2022-08-16T13:54:28.627Z,38.72
2022-08-16T13:58:36.404Z,38.81
2022-08-16T14:01:36.571Z,38.83
2022-08-16T14:05:05.103Z,38.47
2022-08-16T14:08:29.254Z,39.05
2022-08-16T14:11:53.344Z,39.33
2022-08-16T14:15:17.672Z,38.43
2022-08-16T14:18:39.506Z,38.75
2022-08-16T14:22:14.244Z,38.31
2022-08-16T14:25:40.087Z,38.88
2022-08-16T14:29:03.569Z,38.62
2022-08-16T14:32:34.386Z,38.19
2022-08-16T14:35:56.490Z,38.49
2022-08-16T14:39:18.377Z,38.55
2022-08-16T14:42:44.182Z,38.82
2022-08-16T14:46:07.626Z,38.97
2022-08-16T14:49:30.195Z,38.87
2022-08-16T14:52:57.473Z,38.88
2022-08-16T14:56:42.600Z,38.95
2022-08-16T15:00:05.785Z,39.22
2022-08-16T15:03:27.990Z,39.26
2022-08-16T15:06:54.866Z,38.79
2022-08-16T15:10:24.147Z,38.97
2022-08-16T15:13:46.690Z,38.95
2022-08-16T15:17:11.128Z,39.57
2022-08-16T15:20:36.684Z,39.77
2022-08-16T15:24:00.264Z,39.67
2022-08-16T15:27:22.397Z,39.99
2022-08-16T15:30:59.682Z,39.79
2022-08-16T15:34:26.341Z,39.82
2022-08-16T15:37:54.542Z,39.43
2022-08-16T15:41:46.912Z,39.09
2022-08-16T15:45:11.515Z,39.66
2022-08-16T15:48:34.393Z,39.94
2022-08-16T15:52:03.806Z,39.96
2022-08-16T15:55:35.195Z,40.52
2022-08-16T15:58:57.696Z,40.82
2022-08-16T16:02:27.720Z,40.93
2022-08-16T16:05:54.384Z,41.16
2022-08-16T16:09:19.984Z,41.64
2022-08-16T16:12:58.198Z,41.29
2022-08-16T16:16:22.392Z,41.47
2022-08-16T16:19:44.497Z,41.55
2022-08-16T16:23:11.690Z,40.37
2022-08-16T16:26:35.829Z,40.33
2022-08-16T16:30:01.881Z,40.30
2022-08-16T16:33:26.608Z,40.42
2022-08-16T16:36:48.773Z,39.86
2022-08-16T16:40:13.720Z,39.47
2022-08-16T16:43:48.110Z,39.83
2022-08-16T16:47:15.531Z,39.64
2022-08-16T16:50:39.452Z,40.45
2022-08-16T16:54:02.709Z,40.05
2022-08-16T16:57:42.736Z,40.82
2022-08-16T17:01:07.896Z,41.73
2022-08-16T17:04:32.320Z,42.04
2022-08-16T17:07:55.365Z,42.60
2022-08-16T17:11:17.444Z,42.85
2022-08-16T17:19:14.781Z,44.16
2022-08-16T17:22:06.846Z,44.73
2022-08-16T17:25:37.171Z,44.80
2022-08-16T17:29:11.268Z,45.33
2022-08-16T17:32:47.783Z,46.14
2022-08-16T17:36:12.181Z,46.54
2022-08-16T17:39:28.412Z,43.65
2022-08-16T17:39:59.936Z,46.87
2022-08-16T17:43:28.475Z,47.14
2022-08-16T17:46:52.679Z,47.54
2022-08-16T17:50:15.317Z,48.37
2022-08-16T17:53:39.161Z,48.80
2022-08-16T17:57:01.432Z,49.18
2022-08-16T18:00:25.301Z,49.38
2022-08-16T18:04:07.035Z,50.04
2022-08-16T18:07:29.308Z,49.96
2022-08-16T18:10:53.323Z,51.13
2022-08-16T18:14:18.229Z,51.34
2022-08-16T18:17:40.531Z,51.45
2022-08-16T18:21:20.150Z,52.64
2022-08-16T18:24:42.437Z,52.30
2022-08-16T18:28:05.922Z,53.72
2022-08-16T18:31:27.806Z,53.29
2022-08-16T18:34:49.779Z,53.93
2022-08-16T18:38:12.347Z,54.37
2022-08-16T18:41:37.363Z,54.57
2022-08-16T18:45:01.140Z,54.96
2022-08-16T18:48:27.415Z,55.54
2022-08-16T18:51:51.057Z,56.13
2022-08-16T18:55:14.462Z,55.82
2022-08-16T18:58:37.549Z,56.54
2022-08-16T19:02:04.754Z,57.22
2022-08-16T19:05:31.046Z,57.34
2022-08-16T19:08:53.375Z,57.86
2022-08-16T19:12:15.790Z,59.34
2022-08-16T19:15:38.921Z,59.10
2022-08-16T19:19:02.716Z,59.40
2022-08-16T19:22:51.983Z,60.16
2022-08-16T19:26:23.424Z,59.92
2022-08-16T19:29:47.652Z,60.58
2022-08-16T19:33:11.147Z,60.58
2022-08-16T19:36:37.473Z,60.88
2022-08-16T19:39:59.714Z,60.71
2022-08-16T19:43:22.301Z,61.59
2022-08-16T19:46:46.671Z,61.80
2022-08-16T19:50:09.158Z,62.25
2022-08-16T19:53:33.022Z,62.60
2022-08-16T19:56:58.281Z,62.65
2022-08-16T20:00:20.211Z,63.19
2022-08-16T20:03:42.411Z,63.46
2022-08-16T20:07:04.638Z,63.36
2022-08-16T20:10:29.152Z,63.74
2022-08-16T20:13:51.084Z,64.08
2022-08-16T20:17:14.352Z,64.51
2022-08-16T20:20:36.628Z,64.41
2022-08-16T20:24:22.714Z,64.79
2022-08-16T20:27:43.338Z,65.13
2022-08-16T20:31:05.362Z,65.05
2022-08-16T20:34:27.721Z,65.65
2022-08-16T20:37:49.507Z,65.92
2022-08-16T20:44:52.929Z,66.16
2022-08-16T20:48:15.232Z,66.26
2022-08-16T20:51:49.598Z,66.27
2022-08-16T20:55:13.162Z,66.74
2022-08-16T20:58:35.190Z,66.76
2022-08-16T21:01:59.490Z,66.66
2022-08-16T21:05:24.689Z,66.64
2022-08-16T21:08:53.310Z,69.45
2022-08-16T21:12:18.020Z,67.25
2022-08-16T21:15:40.297Z,66.86
2022-08-16T21:19:03.780Z,67.37
2022-08-16T21:22:26.721Z,67.58
2022-08-16T21:25:58.119Z,67.53
2022-08-16T21:29:21.179Z,67.96
2022-08-16T21:32:46.896Z,68.35
2022-08-16T21:36:10.828Z,68.62
2022-08-16T21:39:32.980Z,68.76
2022-08-16T21:42:55.478Z,68.66
2022-08-16T21:46:17.854Z,69.17
2022-08-16T21:49:40.068Z,69.47
2022-08-16T21:53:12.015Z,68.74
2022-08-16T21:56:34.224Z,69.35
2022-08-16T21:59:57.360Z,69.77
2022-08-16T22:03:19.930Z,70.35
2022-08-16T22:06:43.160Z,70.49
2022-08-16T22:11:06.115Z,71.31
2022-08-16T22:13:57.974Z,71.31
2022-08-16T22:17:21.254Z,71.66
2022-08-16T22:20:43.734Z,72.14
2022-08-16T22:24:06.246Z,72.74
2022-08-16T22:27:30.153Z,73.31
2022-08-16T22:30:52.784Z,72.97
2022-08-16T22:34:15.268Z,73.20
2022-08-16T22:37:37.569Z,73.95
2022-08-16T22:41:00.625Z,73.84
2022-08-16T22:44:24.718Z,73.66
2022-08-16T22:47:46.450Z,73.95
2022-08-16T22:51:08.658Z,74.31
2022-08-16T22:54:41.372Z,74.21
2022-08-16T22:58:11.613Z,74.18
2022-08-16T23:01:35.210Z,74.15
2022-08-16T23:04:57.051Z,74.23
2022-08-16T23:08:38.149Z,74.00
2022-08-16T23:12:07.450Z,74.20
2022-08-16T23:15:31.357Z,74.29
2022-08-16T23:18:55.501Z,74.23
2022-08-16T23:22:17.583Z,73.91
2022-08-16T23:25:41.641Z,74.08
2022-08-16T23:29:04.824Z,73.72
2022-08-16T23:32:26.875Z,73.75
2022-08-16T23:35:52.350Z,74.14
2022-08-16T23:39:14.553Z,74.45
2022-08-16T23:42:52.323Z,74.16
2022-08-16T23:46:19.631Z,74.76
2022-08-16T23:49:56.773Z,74.18
2022-08-16T23:53:26.332Z,74.88
2022-08-16T23:56:48.616Z,73.90
